createdAt,value
2022-10-13T00:00:09.994Z,27.3
2022-10-13T00:01:12.536Z,27.4
2022-10-13T00:02:15.873Z,27.9
2022-10-13T00:03:20.063Z,27.4
2022-10-13T00:04:22.280Z,27.8
2022-10-13T00:05:24.807Z,27.7
2022-10-13T00:06:27.005Z,27.7
2022-10-13T00:07:29.472Z,27.7
2022-10-13T00:08:31.956Z,27.8
2022-10-13T00:09:34.149Z,27.6
2022-10-13T00:10:36.622Z,27.8
2022-10-13T00:11:38.813Z,27.8
2022-10-13T00:12:41.292Z,27.5
2022-10-13T00:13:43.756Z,27.7
2022-10-13T00:14:45.696Z,27.6
2022-10-13T00:15:47.920Z,27.5
2022-10-13T00:16:50.159Z,28
2022-10-13T00:17:52.633Z,27.6
2022-10-13T00:18:55.115Z,27.5
2022-10-13T00:19:57.300Z,28.3
2022-10-13T00:20:59.887Z,28.3
2022-10-13T00:22:02.081Z,27.6
2022-10-13T00:23:04.562Z,27.7
2022-10-13T00:24:07.035Z,27.7
2022-10-13T00:25:09.508Z,28.1
2022-10-13T00:26:11.428Z,27.5
2022-10-13T00:27:13.916Z,27.5
2022-10-13T00:28:16.184Z,27.4
2022-10-13T00:29:18.910Z,27.7
2022-10-13T00:30:21.098Z,27.7
2022-10-13T00:31:23.298Z,27.3
2022-10-13T00:32:25.813Z,28
2022-10-13T00:33:28.285Z,27.3
2022-10-13T00:34:30.506Z,28.2
2022-10-13T00:35:32.420Z,27.9
2022-10-13T00:36:35.083Z,28.1
2022-10-13T00:37:37.278Z,28.1
2022-10-13T00:38:39.755Z,27.5
2022-10-13T00:39:41.960Z,27.6
2022-10-13T00:40:44.435Z,27.7
2022-10-13T00:41:46.961Z,27.6
2022-10-13T00:42:49.453Z,28
2022-10-13T00:43:51.645Z,28
2022-10-13T00:44:53.850Z,28.3
2022-10-13T00:45:56.038Z,27.9
2022-10-13T00:46:58.241Z,28
2022-10-13T00:48:00.739Z,28.3
2022-10-13T00:49:02.945Z,27.7
2022-10-13T00:50:05.115Z,28.2
2022-10-13T00:51:07.611Z,27.8
2022-10-13T00:52:09.854Z,28.1
2022-10-13T00:53:12.339Z,28
2022-10-13T00:54:14.567Z,28.2
2022-10-13T00:55:17.042Z,27.7
2022-10-13T00:56:19.510Z,27.4
2022-10-13T00:57:21.423Z,27.5
2022-10-13T00:58:23.356Z,27.5
2022-10-13T00:59:25.538Z,28.2
2022-10-13T01:00:27.522Z,27.8
2022-10-13T01:01:29.732Z,27.9
2022-10-13T01:02:31.632Z,27.7
2022-10-13T01:03:33.867Z,28
2022-10-13T01:04:36.368Z,27.5
2022-10-13T01:05:38.838Z,27.8
2022-10-13T01:06:41.041Z,28.1
2022-10-13T01:07:43.281Z,28.2
2022-10-13T01:08:45.185Z,28.1
2022-10-13T01:09:47.656Z,27.4
2022-10-13T01:10:50.141Z,28.3
2022-10-13T01:11:52.618Z,28.2
2022-10-13T01:12:55.088Z,27.5
2022-10-13T01:13:57.297Z,27.9
2022-10-13T01:14:59.498Z,28.2
2022-10-13T01:16:01.695Z,28.2
2022-10-13T01:17:04.161Z,28.2
2022-10-13T01:18:06.632Z,28.2
2022-10-13T01:19:08.862Z,28
2022-10-13T01:20:11.345Z,27.4
2022-10-13T01:21:13.828Z,28.3
2022-10-13T01:22:16.636Z,27.7
2022-10-13T01:23:21.482Z,27.7
2022-10-13T01:24:23.696Z,27.7
2022-10-13T01:25:26.156Z,28
2022-10-13T01:26:28.364Z,27.9
2022-10-13T01:27:30.838Z,27.7
2022-10-13T01:28:33.072Z,27.7
2022-10-13T01:29:35.796Z,27.7
2022-10-13T01:30:37.990Z,27.6
2022-10-13T01:31:40.461Z,27.8
2022-10-13T01:32:42.653Z,27.9
2022-10-13T01:33:45.016Z,27.8
2022-10-13T01:34:47.232Z,27.7
2022-10-13T01:35:49.440Z,27.6
2022-10-13T01:36:51.900Z,27.7
2022-10-13T01:37:54.096Z,28.1
2022-10-13T01:38:56.704Z,27.8
2022-10-13T01:39:59.179Z,27.6
2022-10-13T01:41:01.659Z,28.2
2022-10-13T01:42:04.143Z,28.1
2022-10-13T01:43:06.616Z,28.3
2022-10-13T01:44:08.822Z,28
2022-10-13T01:45:10.747Z,28.1
2022-10-13T01:46:13.227Z,27.7
2022-10-13T01:47:15.157Z,28.4
2022-10-13T01:48:17.635Z,27.7
2022-10-13T01:49:19.851Z,27.8
2022-10-13T01:50:22.074Z,28.1
2022-10-13T01:51:24.278Z,28
2022-10-13T01:52:27.011Z,28.4
2022-10-13T01:53:29.475Z,27.8
2022-10-13T01:54:31.990Z,27.6
2022-10-13T01:55:34.458Z,27.8
2022-10-13T01:56:36.631Z,28.1
2022-10-13T01:57:38.825Z,27.9
2022-10-13T01:58:40.454Z,28
2022-10-13T01:59:42.633Z,28.1
2022-10-13T02:00:45.138Z,28.3
2022-10-13T02:01:47.603Z,27.6
2022-10-13T02:02:49.525Z,27.7
2022-10-13T02:03:51.996Z,27.8
2022-10-13T02:04:54.206Z,27.6
2022-10-13T02:05:56.710Z,28.4
2022-10-13T02:06:59.200Z,27.8
2022-10-13T02:08:01.400Z,28
2022-10-13T02:09:03.585Z,27.6
2022-10-13T02:10:06.107Z,28.4
2022-10-13T02:11:08.598Z,28.9
2022-10-13T02:12:10.792Z,27.5
2022-10-13T02:13:13.274Z,27.8
2022-10-13T02:14:15.466Z,27.7
2022-10-13T02:15:17.390Z,28.4
2022-10-13T02:16:19.862Z,27.7
2022-10-13T02:17:21.492Z,28.4
2022-10-13T02:18:23.973Z,28.1
2022-10-13T02:19:26.446Z,28
2022-10-13T02:20:28.915Z,27.8
2022-10-13T02:21:31.409Z,28.2
2022-10-13T02:22:33.889Z,28.3
2022-10-13T02:23:35.812Z,27.6
2022-10-13T02:24:38.284Z,27.5
2022-10-13T02:25:40.909Z,27.8
2022-10-13T02:26:43.085Z,28.3
2022-10-13T02:27:45.291Z,28.3
2022-10-13T02:28:47.532Z,28.3
2022-10-13T02:29:49.923Z,27.8
2022-10-13T02:30:52.121Z,27.9
2022-10-13T02:31:54.322Z,28
2022-10-13T02:32:56.293Z,28.3
2022-10-13T02:33:58.767Z,28.8
2022-10-13T02:35:00.989Z,28.2
2022-10-13T02:36:03.457Z,28.4
2022-10-13T02:37:05.686Z,27.7
2022-10-13T02:38:08.402Z,28.2
2022-10-13T02:39:10.607Z,28
2022-10-13T02:40:13.073Z,28.3
2022-10-13T02:41:15.600Z,28.4
2022-10-13T02:42:17.179Z,27.8
2022-10-13T02:43:21.769Z,28.6
2022-10-13T02:44:24.240Z,28.1
2022-10-13T02:45:26.413Z,28.1
2022-10-13T02:46:28.901Z,28.8
2022-10-13T02:47:31.386Z,27.9
2022-10-13T02:48:33.580Z,27.9
2022-10-13T02:49:35.818Z,28.3
2022-10-13T02:50:38.088Z,28.2
2022-10-13T02:51:40.719Z,28.3
2022-10-13T02:52:42.956Z,28.4
2022-10-13T02:53:45.470Z,28
2022-10-13T02:54:47.661Z,27.9
2022-10-13T02:55:50.131Z,28.2
2022-10-13T02:56:52.649Z,28.1
2022-10-13T02:57:54.853Z,28.3
2022-10-13T02:58:56.752Z,27.7
2022-10-13T02:59:58.652Z,28.1
2022-10-13T03:01:00.894Z,27.7
2022-10-13T03:02:03.416Z,28.4
2022-10-13T03:03:05.617Z,27.9
2022-10-13T03:04:08.107Z,27.7
2022-10-13T03:05:10.574Z,28.3
2022-10-13T03:06:12.496Z,28
2022-10-13T03:07:14.688Z,27.5
2022-10-13T03:08:16.918Z,28.3
2022-10-13T03:09:19.399Z,28
2022-10-13T03:10:21.870Z,27.8
2022-10-13T03:11:23.788Z,28.1
2022-10-13T03:12:26.591Z,27.5
2022-10-13T03:13:29.061Z,27.9
2022-10-13T03:14:30.697Z,27.9
2022-10-13T03:15:33.220Z,27.7
2022-10-13T03:16:35.138Z,27.8
2022-10-13T03:17:37.618Z,27.7
2022-10-13T03:18:40.090Z,27.9
2022-10-13T03:19:42.293Z,27.7
2022-10-13T03:20:44.237Z,27.4
2022-10-13T03:21:46.728Z,27.7
2022-10-13T03:22:49.998Z,27.4
2022-10-13T03:23:52.132Z,27.6
2022-10-13T03:24:54.348Z,27.5
2022-10-13T03:25:56.853Z,27.7
2022-10-13T03:26:59.327Z,27.7
2022-10-13T03:28:01.751Z,27.7
2022-10-13T03:29:04.531Z,27.2
2022-10-13T03:30:06.431Z,27.6
2022-10-13T03:31:08.615Z,27.3
2022-10-13T03:32:10.835Z,27.3
2022-10-13T03:33:13.301Z,27.9
2022-10-13T03:34:15.783Z,27.5
2022-10-13T03:35:18.270Z,27.2
2022-10-13T03:36:20.168Z,27.4
2022-10-13T03:37:22.361Z,27.3
2022-10-13T03:38:24.334Z,27.7
2022-10-13T03:39:26.704Z,27.4
2022-10-13T03:40:29.386Z,27.6
2022-10-13T03:41:31.850Z,27.8
2022-10-13T03:42:34.318Z,27.5
2022-10-13T03:43:36.866Z,27.1
2022-10-13T03:44:39.063Z,27.5
2022-10-13T03:45:41.248Z,27.1
2022-10-13T03:46:43.422Z,27.4
2022-10-13T03:47:45.885Z,27.3
2022-10-13T03:48:48.098Z,27.4
2022-10-13T03:49:50.573Z,27.5
2022-10-13T03:50:52.769Z,27.4
2022-10-13T03:51:55.232Z,27.5
2022-10-13T03:52:57.423Z,27.3
2022-10-13T03:53:59.617Z,27.5
2022-10-13T03:55:02.110Z,27.6
2022-10-13T03:56:04.333Z,27.3
2022-10-13T03:57:06.263Z,27.7
2022-10-13T03:58:08.447Z,27
2022-10-13T03:59:10.745Z,27.7
2022-10-13T04:00:12.936Z,27.3
2022-10-13T04:01:15.415Z,27.6
2022-10-13T04:02:17.926Z,27.4
2022-10-13T04:03:22.465Z,27.6
2022-10-13T04:04:24.412Z,27.1
2022-10-13T04:05:26.881Z,27.4
2022-10-13T04:06:29.074Z,27.3
2022-10-13T04:07:31.547Z,27.3
2022-10-13T04:08:33.753Z,27.3
2022-10-13T04:09:35.933Z,27.3
2022-10-13T04:10:38.169Z,27.7
2022-10-13T04:11:40.377Z,27.4
2022-10-13T04:12:42.848Z,27.2
2022-10-13T04:13:45.025Z,27.3
2022-10-13T04:14:47.654Z,27.2
2022-10-13T04:15:50.128Z,27.3
2022-10-13T04:16:52.329Z,27.2
2022-10-13T04:17:54.805Z,27.7
2022-10-13T04:18:57.276Z,27.2
2022-10-13T04:19:59.469Z,27.3
2022-10-13T04:21:01.404Z,27.5
2022-10-13T04:22:03.868Z,27.3
2022-10-13T04:23:06.065Z,27.2
2022-10-13T04:24:08.237Z,27.1
2022-10-13T04:25:10.441Z,27.2
2022-10-13T04:26:12.652Z,26.8
2022-10-13T04:27:15.145Z,27.4
2022-10-13T04:28:17.387Z,27.4
2022-10-13T04:29:20.071Z,27.3
2022-10-13T04:30:22.868Z,27
2022-10-13T04:31:25.422Z,27.2
2022-10-13T04:32:27.945Z,27.1
2022-10-13T04:33:30.466Z,27.1
2022-10-13T04:34:32.943Z,27.3
2022-10-13T04:35:35.143Z,27.2
2022-10-13T04:36:37.336Z,27.4
2022-10-13T04:37:42.844Z,27.4
2022-10-13T04:38:44.510Z,27.4
2022-10-13T04:39:46.424Z,27.3
2022-10-13T04:40:48.618Z,27.3
2022-10-13T04:41:50.835Z,27.2
2022-10-13T04:42:53.344Z,27.1
2022-10-13T04:43:55.815Z,27.2
2022-10-13T04:44:58.008Z,27.3
2022-10-13T04:46:00.548Z,27.2
2022-10-13T04:47:02.528Z,27.2
2022-10-13T04:48:04.995Z,27.3
2022-10-13T04:49:07.178Z,27.5
2022-10-13T04:50:09.402Z,27.2
2022-10-13T04:51:11.352Z,27.2
2022-10-13T04:52:13.261Z,27
2022-10-13T04:53:19.142Z,26.9
2022-10-13T04:54:20.449Z,27.2
2022-10-13T04:55:22.632Z,27
2022-10-13T04:56:24.832Z,27.2
2022-10-13T04:57:26.770Z,27.1
2022-10-13T04:58:29.256Z,27.5
2022-10-13T04:59:30.904Z,26.8
2022-10-13T05:00:33.423Z,26.9
2022-10-13T05:01:36.230Z,27.1
2022-10-13T05:02:38.142Z,27
2022-10-13T05:03:40.601Z,27.1
2022-10-13T05:04:43.088Z,27.5
2022-10-13T05:05:45.556Z,27
2022-10-13T05:07:12.916Z,27.2
2022-10-13T05:07:52.174Z,26.9
2022-10-13T05:08:54.647Z,27.3
2022-10-13T05:09:56.843Z,27.1
2022-10-13T05:10:58.745Z,27.3
2022-10-13T05:12:01.219Z,26.7
2022-10-13T05:13:03.714Z,26.8
2022-10-13T05:14:06.198Z,27.2
2022-10-13T05:15:08.666Z,27.1
2022-10-13T05:16:11.135Z,27.2
2022-10-13T05:17:13.438Z,27
2022-10-13T05:18:15.340Z,27.2
2022-10-13T05:19:17.809Z,27.4
2022-10-13T05:20:20.005Z,27.2
2022-10-13T05:21:22.212Z,26.7
2022-10-13T05:22:24.132Z,26.9
2022-10-13T05:23:26.347Z,27.2
2022-10-13T05:24:28.826Z,27.4
2022-10-13T05:25:33.768Z,27.1
2022-10-13T05:26:35.733Z,27
2022-10-13T05:27:37.679Z,26.9
2022-10-13T05:28:39.906Z,26.7
2022-10-13T05:29:42.817Z,27.1
2022-10-13T05:30:45.297Z,27.3
2022-10-13T05:31:47.225Z,27.1
2022-10-13T05:32:53.672Z,27.1
2022-10-13T05:33:54.822Z,27.1
2022-10-13T05:34:57.029Z,26.9
2022-10-13T05:35:59.223Z,27.2
2022-10-13T05:37:01.425Z,26.7
2022-10-13T05:38:03.377Z,26.7
2022-10-13T05:39:05.559Z,27.4
2022-10-13T05:40:07.192Z,26.9
2022-10-13T05:41:09.103Z,26.9
2022-10-13T05:42:11.457Z,27.2
2022-10-13T05:43:13.938Z,26.6
2022-10-13T05:44:16.501Z,27
2022-10-13T05:45:18.763Z,27.1
2022-10-13T05:46:20.980Z,27
2022-10-13T05:47:23.198Z,27.5
2022-10-13T05:48:25.752Z,26.9
2022-10-13T05:49:27.137Z,26.8
2022-10-13T05:50:29.343Z,27.2
2022-10-13T05:51:31.540Z,27.1
2022-10-13T05:52:34.013Z,26.8
2022-10-13T05:53:35.913Z,27.1
2022-10-13T05:54:38.409Z,27.2
2022-10-13T05:55:40.589Z,26.9
2022-10-13T05:56:43.078Z,27.4
2022-10-13T05:57:45.012Z,26.9
2022-10-13T05:58:47.511Z,27.3
2022-10-13T05:59:49.940Z,27.3
2022-10-13T06:00:51.894Z,27.3
2022-10-13T06:01:54.471Z,27.1
2022-10-13T06:02:57.009Z,27.2
2022-10-13T06:03:59.534Z,27.1
2022-10-13T06:05:02.018Z,27.1
2022-10-13T06:06:04.223Z,27
2022-10-13T06:07:06.440Z,27.3
2022-10-13T06:08:08.353Z,26.8
2022-10-13T06:09:10.527Z,27.3
2022-10-13T06:10:12.993Z,26.8
2022-10-13T06:11:15.194Z,26.8
2022-10-13T06:12:17.895Z,27.1
2022-10-13T06:13:22.344Z,27.1
2022-10-13T06:14:24.819Z,27
2022-10-13T06:15:28.402Z,27
2022-10-13T06:16:30.745Z,26.9
2022-10-13T06:17:33.211Z,27.3
2022-10-13T06:18:35.134Z,27.4
2022-10-13T06:19:37.669Z,27.3
2022-10-13T06:20:40.137Z,26.9
2022-10-13T06:21:42.616Z,27.4
2022-10-13T06:22:44.783Z,27
2022-10-13T06:23:47.257Z,26.9
2022-10-13T06:24:49.723Z,26.6
2022-10-13T06:25:51.923Z,27.1
2022-10-13T06:26:54.125Z,27.5
2022-10-13T06:27:56.605Z,27.7
2022-10-13T06:28:59.846Z,27
2022-10-13T06:30:02.526Z,27.4
2022-10-13T06:31:04.459Z,27.3
2022-10-13T06:32:07.089Z,27
2022-10-13T06:33:09.288Z,27.1
2022-10-13T06:34:11.201Z,27.4
2022-10-13T06:35:13.742Z,27.1
2022-10-13T06:36:16.245Z,26.8
2022-10-13T06:37:21.191Z,27.1
2022-10-13T06:38:23.710Z,27.2
2022-10-13T06:39:25.905Z,27.2
2022-10-13T06:40:28.378Z,27.5
2022-10-13T06:41:30.358Z,27.1
2022-10-13T06:42:32.833Z,27.1
2022-10-13T06:43:40.277Z,27.3
2022-10-13T06:44:41.575Z,27
2022-10-13T06:45:44.287Z,27.4
2022-10-13T06:46:46.887Z,27.4
2022-10-13T06:47:48.919Z,27.1
2022-10-13T06:48:51.394Z,26.9
2022-10-13T06:49:53.330Z,26.7
2022-10-13T06:50:55.585Z,26.7
2022-10-13T06:51:57.512Z,27.1
2022-10-13T06:52:59.710Z,27
2022-10-13T06:54:01.910Z,26.9
2022-10-13T06:55:04.390Z,27.2
2022-10-13T06:56:06.604Z,27.1
2022-10-13T06:57:08.521Z,26.8
2022-10-13T06:58:11.001Z,27.1
2022-10-13T06:59:12.665Z,26.7
2022-10-13T07:00:14.877Z,26.9
2022-10-13T07:01:17.356Z,27.3
2022-10-13T07:02:20.192Z,26.8
2022-10-13T07:03:23.993Z,27
2022-10-13T07:04:26.476Z,26.6
2022-10-13T07:05:28.982Z,27
2022-10-13T07:06:31.520Z,26.9
2022-10-13T07:07:33.999Z,26.6
2022-10-13T07:08:36.472Z,27.2
2022-10-13T07:09:38.947Z,26.9
2022-10-13T07:10:41.458Z,27
2022-10-13T07:11:43.679Z,26.9
2022-10-13T07:12:46.155Z,27.2
2022-10-13T07:13:48.668Z,27.2
2022-10-13T07:14:51.127Z,27.3
2022-10-13T07:15:53.344Z,26.7
2022-10-13T07:16:55.550Z,26.7
2022-10-13T07:17:57.502Z,26.6
2022-10-13T07:18:59.987Z,26.7
2022-10-13T07:20:03.610Z,26.8
2022-10-13T07:21:07.472Z,26.9
2022-10-13T07:22:10.041Z,27
2022-10-13T07:23:12.533Z,26.7
2022-10-13T07:24:15.137Z,26.8
2022-10-13T07:25:17.034Z,26.9
2022-10-13T07:26:19.244Z,27
2022-10-13T07:27:21.740Z,27
2022-10-13T07:28:26.257Z,27
2022-10-13T07:29:28.488Z,26.9
2022-10-13T07:30:30.689Z,27
2022-10-13T07:31:33.176Z,27
2022-10-13T07:32:35.656Z,27.1
2022-10-13T07:33:37.867Z,27.1
2022-10-13T07:34:40.369Z,27
2022-10-13T07:35:42.583Z,27
2022-10-13T07:36:44.771Z,26.7
2022-10-13T07:37:47.323Z,26.9
2022-10-13T07:38:49.796Z,27.1
2022-10-13T07:39:52.275Z,27.3
2022-10-13T07:40:54.762Z,27
2022-10-13T07:41:56.701Z,27.1
2022-10-13T07:42:59.169Z,27.1
2022-10-13T07:44:01.800Z,27
2022-10-13T07:45:04.269Z,26.9
2022-10-13T07:46:06.480Z,27.1
2022-10-13T07:47:08.956Z,27.2
2022-10-13T07:48:11.212Z,27.1
2022-10-13T07:49:15.225Z,27.1
2022-10-13T07:50:18.480Z,26.9
2022-10-13T07:51:21.344Z,26.9
2022-10-13T07:52:23.394Z,27.2
2022-10-13T07:53:26.047Z,26.8
2022-10-13T07:54:28.513Z,26.7
2022-10-13T07:55:30.987Z,26.8
2022-10-13T07:56:33.204Z,27
2022-10-13T07:57:35.667Z,27
2022-10-13T07:58:37.603Z,27.1
2022-10-13T07:59:40.074Z,26.7
2022-10-13T08:00:41.988Z,26.7
2022-10-13T08:01:44.247Z,26.7
2022-10-13T08:02:46.644Z,26.7
2022-10-13T08:03:50.086Z,27
2022-10-13T08:04:52.695Z,26.8
2022-10-13T08:05:54.881Z,26.8
2022-10-13T08:06:57.227Z,27.1
2022-10-13T08:07:59.699Z,26.5
2022-10-13T08:09:02.344Z,26.7
2022-10-13T08:10:04.823Z,26.9
2022-10-13T08:11:07.025Z,26.8
2022-10-13T08:12:09.257Z,26.9
2022-10-13T08:13:11.216Z,26.9
2022-10-13T08:14:13.153Z,27.1
2022-10-13T08:15:15.645Z,26.9
2022-10-13T08:16:17.856Z,27.1
2022-10-13T08:17:20.647Z,27.1
2022-10-13T08:18:24.137Z,27.2
2022-10-13T08:19:26.706Z,26.8
2022-10-13T08:20:36.111Z,27.1
2022-10-13T08:22:02.101Z,26.8
2022-10-13T08:22:39.195Z,27.3
2022-10-13T08:23:41.416Z,27.1
2022-10-13T08:24:43.792Z,26.8
2022-10-13T08:25:45.719Z,27
2022-10-13T08:26:47.947Z,26.9
2022-10-13T08:27:51.308Z,26.7
2022-10-13T08:29:09.752Z,27.1
2022-10-13T08:30:02.111Z,26.9
2022-10-13T08:31:04.377Z,26.7
2022-10-13T08:32:07.403Z,26.8
2022-10-13T08:33:09.580Z,27.1
2022-10-13T08:34:12.057Z,27.1
2022-10-13T08:35:13.992Z,26.9
2022-10-13T08:36:16.235Z,27.1
2022-10-13T08:37:18.438Z,26.9
2022-10-13T08:38:20.645Z,27
2022-10-13T08:39:23.134Z,27
2022-10-13T08:40:25.575Z,26.8
2022-10-13T08:41:27.779Z,27
2022-10-13T08:42:30.284Z,27
2022-10-13T08:43:32.786Z,26.7
2022-10-13T08:45:15.952Z,27.2
2022-10-13T08:45:41.611Z,26.8
2022-10-13T08:46:44.400Z,26.9
2022-10-13T08:47:46.864Z,26.8
2022-10-13T08:48:49.341Z,27
2022-10-13T08:49:54.417Z,26.8
2022-10-13T08:50:56.805Z,26.8
2022-10-13T08:51:59.314Z,26.9
2022-10-13T08:53:01.518Z,26.9
2022-10-13T08:54:03.984Z,27
2022-10-13T08:55:05.936Z,27.1
2022-10-13T08:56:08.521Z,26.9
2022-10-13T08:57:11.034Z,26.9
2022-10-13T08:58:13.304Z,26.8
2022-10-13T08:59:15.240Z,26.7
2022-10-13T09:00:17.445Z,26.7
2022-10-13T09:01:19.687Z,26.9
2022-10-13T09:02:22.170Z,26.9
2022-10-13T09:03:24.660Z,26.9
2022-10-13T09:04:26.860Z,27
2022-10-13T09:05:29.339Z,26.9
2022-10-13T09:06:31.816Z,26.9
2022-10-13T09:07:34.103Z,27.2
2022-10-13T09:08:36.296Z,26.8
2022-10-13T09:09:38.773Z,26.6
2022-10-13T09:10:40.743Z,26.9
2022-10-13T09:11:43.368Z,26.8
2022-10-13T09:12:45.851Z,26.9
2022-10-13T09:13:48.055Z,26.8
2022-10-13T09:14:49.993Z,26.9
2022-10-13T09:15:52.467Z,26.9
2022-10-13T09:16:54.649Z,26.8
2022-10-13T09:17:57.124Z,26.8
2022-10-13T09:18:59.313Z,26.7
2022-10-13T09:20:01.551Z,26.9
2022-10-13T09:21:03.837Z,26.9
2022-10-13T09:22:06.061Z,26.7
2022-10-13T09:23:08.312Z,26.8
2022-10-13T09:24:10.228Z,26.9
2022-10-13T09:25:12.719Z,27
2022-10-13T09:26:14.968Z,26.9
2022-10-13T09:27:17.628Z,27
2022-10-13T09:28:20.161Z,26.5
2022-10-13T09:29:22.766Z,26.6
2022-10-13T09:30:25.254Z,26.8
2022-10-13T09:31:27.433Z,26.8
2022-10-13T09:32:30.000Z,26.9
2022-10-13T09:33:32.213Z,26.7
2022-10-13T09:34:34.431Z,26.8
2022-10-13T09:35:36.624Z,26.7
2022-10-13T09:36:38.317Z,26.9
2022-10-13T09:37:40.805Z,27
2022-10-13T09:38:43.150Z,26.9
2022-10-13T09:39:45.660Z,26.9
2022-10-13T09:40:47.610Z,26.8
2022-10-13T09:41:49.828Z,26.9
2022-10-13T09:42:52.364Z,26.7
2022-10-13T09:43:54.869Z,26.9
2022-10-13T09:44:57.364Z,26.7
2022-10-13T09:45:59.861Z,26.9
2022-10-13T09:47:02.356Z,26.7
2022-10-13T09:48:04.592Z,26.9
2022-10-13T09:49:06.808Z,26.8
2022-10-13T09:50:08.717Z,27.1
2022-10-13T09:51:10.918Z,26.8
2022-10-13T09:52:13.404Z,26.8
2022-10-13T09:53:15.887Z,26.9
2022-10-13T09:54:18.107Z,26.7
2022-10-13T09:55:20.020Z,26.8
2022-10-13T09:56:22.207Z,27
2022-10-13T09:57:24.466Z,26.8
2022-10-13T09:58:27.022Z,26.8
2022-10-13T09:59:29.219Z,27
2022-10-13T10:00:31.716Z,26.9
2022-10-13T10:01:33.916Z,26.9
2022-10-13T10:02:36.119Z,26.9
2022-10-13T10:03:38.875Z,26.7
2022-10-13T10:04:41.656Z,26.9
2022-10-13T10:05:44.141Z,27
2022-10-13T10:06:46.634Z,27.1
2022-10-13T10:07:49.128Z,26.7
2022-10-13T10:09:02.555Z,26.9
2022-10-13T10:09:56.107Z,26.9
2022-10-13T10:10:58.302Z,26.7
2022-10-13T10:12:00.810Z,26.8
2022-10-13T10:13:02.770Z,26.7
2022-10-13T10:14:05.301Z,26.7
2022-10-13T10:15:07.498Z,27
2022-10-13T10:16:09.972Z,26.7
2022-10-13T10:17:11.931Z,26.7
2022-10-13T10:18:14.458Z,26.9
2022-10-13T10:19:16.413Z,27
2022-10-13T10:20:18.621Z,26.9
2022-10-13T10:21:20.574Z,26.9
2022-10-13T10:22:23.244Z,26.9
2022-10-13T10:23:25.440Z,26.8
2022-10-13T10:24:27.645Z,26.9
2022-10-13T10:25:29.920Z,26.6
2022-10-13T10:26:32.897Z,26.9
2022-10-13T10:27:37.702Z,26.9
2022-10-13T10:28:40.513Z,26.9
2022-10-13T10:29:43.531Z,26.9
2022-10-13T10:30:45.445Z,26.9
2022-10-13T10:31:47.922Z,27.1
2022-10-13T10:32:49.579Z,26.6
2022-10-13T10:33:51.788Z,26.7
2022-10-13T10:34:54.266Z,26.9
2022-10-13T10:35:56.519Z,26.8
2022-10-13T10:36:58.996Z,26.9
2022-10-13T10:38:01.216Z,27
2022-10-13T10:39:03.485Z,26.8
2022-10-13T10:40:05.403Z,26.9
2022-10-13T10:41:08.035Z,26.9
2022-10-13T10:42:10.256Z,26.9
2022-10-13T10:43:12.196Z,26.7
2022-10-13T10:44:14.125Z,26.8
2022-10-13T10:45:16.490Z,26.9
2022-10-13T10:46:18.983Z,26.9
2022-10-13T10:47:22.655Z,26.9
2022-10-13T10:48:26.173Z,26.9
2022-10-13T10:49:28.401Z,27
2022-10-13T10:50:30.579Z,27.2
2022-10-13T10:51:32.774Z,26.8
2022-10-13T10:52:34.701Z,26.9
2022-10-13T10:53:37.180Z,27
2022-10-13T10:54:39.115Z,27.1
2022-10-13T10:55:45.303Z,26.9
2022-10-13T10:56:47.798Z,26.9
2022-10-13T10:57:49.991Z,27
2022-10-13T10:58:52.192Z,27
2022-10-13T10:59:54.390Z,26.8
2022-10-13T11:00:56.982Z,26.9
2022-10-13T11:01:58.908Z,26.7
2022-10-13T11:03:01.136Z,27
2022-10-13T11:04:03.616Z,26.9
2022-10-13T11:05:06.418Z,27
2022-10-13T11:06:08.070Z,26.9
2022-10-13T11:07:10.278Z,26.8
2022-10-13T11:08:12.212Z,26.9
2022-10-13T11:09:14.143Z,26.9
2022-10-13T11:10:16.681Z,27
2022-10-13T11:11:21.947Z,27
2022-10-13T11:12:24.185Z,27.1
2022-10-13T11:13:26.695Z,27
2022-10-13T11:14:29.182Z,26.9
2022-10-13T11:15:31.114Z,27.1
2022-10-13T11:16:33.619Z,26.9
2022-10-13T11:17:35.248Z,26.8
2022-10-13T11:18:37.733Z,26.6
2022-10-13T11:19:39.949Z,26.8
2022-10-13T11:20:42.169Z,27
2022-10-13T11:21:44.359Z,26.9
2022-10-13T11:22:46.290Z,26.9
2022-10-13T11:23:48.229Z,26.9
2022-10-13T11:24:50.465Z,26.9
2022-10-13T11:25:52.938Z,27.2
2022-10-13T11:26:55.439Z,27
2022-10-13T11:27:57.934Z,26.7
2022-10-13T11:29:00.158Z,26.7
2022-10-13T11:30:02.342Z,26.9
2022-10-13T11:31:04.244Z,26.9
2022-10-13T11:32:06.899Z,26.9
2022-10-13T11:33:08.807Z,26.7
2022-10-13T11:34:11.027Z,27.1
2022-10-13T11:35:13.229Z,27
2022-10-13T11:36:15.434Z,27
2022-10-13T11:37:17.618Z,26.9
2022-10-13T11:38:19.528Z,26.9
2022-10-13T11:39:21.770Z,26.9
2022-10-13T11:40:24.284Z,26.8
2022-10-13T11:41:26.769Z,26.8
2022-10-13T11:42:28.395Z,26.8
2022-10-13T11:43:30.903Z,27.1
2022-10-13T11:44:33.376Z,26.9
2022-10-13T11:45:35.853Z,27
2022-10-13T11:46:38.049Z,26.8
2022-10-13T11:47:40.843Z,26.9
2022-10-13T11:48:43.038Z,26.9
2022-10-13T11:49:45.527Z,26.8
2022-10-13T11:50:48.028Z,27
2022-10-13T11:51:50.229Z,26.9
2022-10-13T11:52:52.700Z,26.9
2022-10-13T11:53:54.631Z,26.8
2022-10-13T11:54:56.861Z,26.8
2022-10-13T11:55:59.221Z,27
2022-10-13T11:57:01.139Z,26.8
2022-10-13T11:58:03.347Z,26.9
2022-10-13T11:59:05.631Z,26.8
2022-10-13T12:00:07.825Z,26.9
2022-10-13T12:01:10.299Z,26.8
2022-10-13T12:02:12.512Z,26.9
2022-10-13T12:03:18.530Z,26.8
2022-10-13T12:04:20.947Z,26.9
2022-10-13T12:05:23.435Z,26.9
2022-10-13T12:06:25.912Z,27
2022-10-13T12:07:27.838Z,26.9
2022-10-13T12:08:30.058Z,26.9
2022-10-13T12:09:32.546Z,27.1
2022-10-13T12:10:34.738Z,27.1
2022-10-13T12:11:36.392Z,27.2
2022-10-13T12:12:38.561Z,26.7
2022-10-13T12:13:41.082Z,26.8
2022-10-13T12:14:43.588Z,26.9
2022-10-13T12:15:45.834Z,27.1
2022-10-13T12:16:48.024Z,27
2022-10-13T12:17:50.798Z,26.9
2022-10-13T12:18:53.308Z,27
2022-10-13T12:19:55.554Z,27
2022-10-13T12:20:58.057Z,26.9
2022-10-13T12:21:59.989Z,27.1
2022-10-13T12:23:01.900Z,27
2022-10-13T12:24:03.809Z,27
2022-10-13T12:25:06.278Z,26.8
2022-10-13T12:26:08.759Z,26.8
2022-10-13T12:27:11.236Z,26.9
2022-10-13T12:28:13.726Z,27
2022-10-13T12:29:16.538Z,26.8
2022-10-13T12:30:19.043Z,27.1
2022-10-13T12:31:21.537Z,26.9
2022-10-13T12:32:23.764Z,26.9
2022-10-13T12:33:25.673Z,27.1
2022-10-13T12:34:27.926Z,27.1
2022-10-13T12:35:30.459Z,26.8
2022-10-13T12:36:32.964Z,26.9
2022-10-13T12:37:35.170Z,26.9
2022-10-13T12:38:37.667Z,26.9
2022-10-13T12:39:39.872Z,27.3
2022-10-13T12:40:42.373Z,26.8
2022-10-13T12:41:44.583Z,26.9
2022-10-13T12:42:47.147Z,26.9
2022-10-13T12:43:49.792Z,27
2022-10-13T12:44:52.288Z,27
2022-10-13T12:45:54.614Z,26.9
2022-10-13T12:46:57.093Z,27
2022-10-13T12:47:59.336Z,27.1
2022-10-13T12:49:00.984Z,26.9
2022-10-13T12:50:03.590Z,26.9
2022-10-13T12:51:06.645Z,26.9
2022-10-13T12:52:08.843Z,26.9
2022-10-13T12:53:11.057Z,26.8
2022-10-13T12:54:13.604Z,26.8
2022-10-13T12:55:15.784Z,26.9
2022-10-13T12:56:18.009Z,27
2022-10-13T12:57:20.485Z,27.1
2022-10-13T12:58:22.983Z,26.9
2022-10-13T12:59:25.213Z,27
2022-10-13T13:00:27.232Z,26.9
2022-10-13T13:01:30.307Z,26.9
2022-10-13T13:02:32.838Z,27
2022-10-13T13:03:35.381Z,27
2022-10-13T13:04:37.882Z,26.9
2022-10-13T13:05:40.448Z,26.9
2022-10-13T13:06:42.745Z,26.9
2022-10-13T13:07:44.959Z,27.2
2022-10-13T13:08:47.459Z,27.1
2022-10-13T13:09:49.936Z,27.1
2022-10-13T13:10:52.157Z,27.1
2022-10-13T13:11:54.062Z,26.9
2022-10-13T13:12:56.789Z,26.9
2022-10-13T13:13:58.745Z,27.3
2022-10-13T13:15:00.659Z,26.9
2022-10-13T13:16:02.851Z,27.1
2022-10-13T13:17:05.459Z,26.9
2022-10-13T13:18:07.953Z,27.1
2022-10-13T13:19:10.442Z,27.1
2022-10-13T13:20:12.934Z,26.8
2022-10-13T13:21:15.469Z,26.9
2022-10-13T13:22:18.195Z,26.9
2022-10-13T13:23:22.586Z,27
2022-10-13T13:24:35.799Z,26.9
2022-10-13T13:25:30.055Z,27
2022-10-13T13:26:31.987Z,27.1
2022-10-13T13:27:34.220Z,26.9
2022-10-13T13:28:36.776Z,26.9
2022-10-13T13:29:39.528Z,27.1
2022-10-13T13:30:41.744Z,26.9
2022-10-13T13:31:43.682Z,27
2022-10-13T13:32:45.917Z,27.1
2022-10-13T13:33:48.681Z,27
2022-10-13T13:34:50.861Z,27
2022-10-13T13:35:53.187Z,27
2022-10-13T13:36:55.779Z,26.9
2022-10-13T13:37:58.060Z,27
2022-10-13T13:39:00.544Z,26.9
2022-10-13T13:40:02.785Z,27.1
2022-10-13T13:41:05.231Z,27.1
2022-10-13T13:42:07.719Z,27.1
2022-10-13T13:43:09.629Z,27.1
2022-10-13T13:44:12.118Z,26.9
2022-10-13T13:45:14.597Z,26.9
2022-10-13T13:46:17.085Z,27.1
2022-10-13T13:47:19.567Z,27.2
2022-10-13T13:48:23.965Z,27
2022-10-13T13:49:26.454Z,27.1
2022-10-13T13:50:28.418Z,27
2022-10-13T13:51:30.696Z,27.2
2022-10-13T13:52:33.304Z,27.1
2022-10-13T13:53:35.868Z,26.9
2022-10-13T13:54:37.799Z,27
2022-10-13T13:55:39.720Z,27.1
2022-10-13T13:56:41.932Z,26.9
2022-10-13T13:57:43.905Z,27.2